Time;durP1;ratioP1;P1;durP2;ratioP2;P2;SDS_P1;SDS_P2;PMS_P1;PMS_P2;Temp;Humidity;BMP_temperature;BMP_pressure;BME280_temperature;BME280_humidity;BME280_pressure;Samples;Min_cycle;Max_cycle;Signal;HPM_P1;HPM_P2
2023/12/06 00:01:10;;;;;;;0.00;0.00;;;;;;;1.29;100.00;100449.69;4807980;29;20068;-77
2023/12/06 00:04:42;;;;;;;0.00;0.00;;;;;;;1.52;100.00;100482.47;4785465;29;20036;-78
2023/12/06 00:07:51;;;;;;;;;;;;;;;;;;;;;
2023/12/06 00:10:51;;;;;;;;;;;;;;;;;;;;;
2023/12/06 00:13:32;;;;;;;0.10;0.10;;;;;;;1.26;100.00;100477.03;4812884;29;20071;-78
2023/12/06 00:16:25;;;;;;;0.00;0.00;;;;;;;0.75;100.00;100417.22;4820735;29;20056;-76
2023/12/06 00:19:10;;;;;;;0.10;0.10;;;;;;;1.05;100.00;100476.13;4791703;29;20085;-78
2023/12/06 00:25:22;;;;;;;;;;;;;;;;;;;;;
2023/12/06 00:27:48;;;;;;;0.10;0.10;;;;;;;0.54;100.00;100395.81;4749514;30;20040;-76
2023/12/06 00:30:13;;;;;;;0.00;0.00;;;;;;;0.61;100.00;100426.25;4754872;30;20115;-77
2023/12/06 00:32:39;;;;;;;0.00;0.00;;;;;;;0.84;100.00;100469.03;4774682;29;20072;-78
2023/12/06 00:35:09;;;;;;;0.00;0.00;;;;;;;0.87;100.00;100455.16;4785992;29;20089;-80
2023/12/06 00:37:45;;;;;;;0.10;0.10;;;;;;;0.73;100.00;100430.06;4787051;29;20051;-79
2023/12/06 00:40:47;;;;;;;0.10;0.10;;;;;;;0.51;100.00;100395.19;4811626;29;20066;-78
2023/12/06 00:43:04;;;;;;;0.10;0.10;;;;;;;0.74;100.00;100426.31;4796742;29;20045;-78
2023/12/06 00:45:30;;;;;;;0.00;0.00;;;;;;;0.65;100.00;100412.19;4822246;29;20161;-79
2023/12/06 00:48:21;;;;;;;;;;;;;;;;;;;;;
2023/12/06 01:00:20;;;;;;;0.00;0.00;;;;;;;0.76;100.00;100472.72;4805820;29;20053;-79
2023/12/06 01:02:46;;;;;;;0.10;0.10;;;;;;;0.50;100.00;100444.63;4801628;29;20030;-78
2023/12/06 01:05:11;;;;;;;0.00;0.00;;;;;;;0.60;100.00;100473.88;4806843;29;20076;-78
2023/12/06 01:07:49;;;;;;;;;;;;;;;;;;;;;
2023/12/06 01:10:47;;;;;;;0.10;0.10;;;;;;;0.04;100.00;100393.28;4813403;29;20064;-79
2023/12/06 01:13:16;;;;;;;0.00;0.00;;;;;;;0.34;100.00;100453.03;4774514;29;20043;-77
2023/12/06 01:15:41;;;;;;;0.10;0.10;;;;;;;0.24;100.00;100434.56;4804075;29;20554;-77
2023/12/06 01:18:07;;;;;;;0.10;0.10;;;;;;;0.42;100.00;100469.00;4795163;29;20144;-77
2023/12/06 01:20:38;;;;;;;0.00;0.00;;;;;;;0.36;100.00;100461.72;4794644;29;20064;-78
2023/12/06 01:23:04;;;;;;;0.10;0.10;;;;;;;0.25;100.00;100454.22;4808994;29;20057;-78
2023/12/06 01:25:30;;;;;;;0.10;0.10;;;;;;;0.39;100.00;100482.84;4795040;29;20041;-77
2023/12/06 01:27:56;;;;;;;0.10;0.10;;;;;;;0.07;100.00;100436.72;4795764;29;20030;-79
2023/12/06 01:30:34;;;;;;;0.10;0.10;;;;;;;-0.06;100.00;100417.81;4804740;29;20098;-79
2023/12/06 01:33:00;;;;;;;0.10;0.10;;;;;;;0.00;100.00;100435.88;4816674;29;20060;-78
2023/12/06 01:35:35;;;;;;;0.10;0.10;;;;;;;-0.21;100.00;100407.97;4797147;29;20030;-79
2023/12/06 01:38:24;;;;;;;0.10;0.10;;;;;;;-0.34;100.00;100397.13;4784163;29;20055;-77
2023/12/06 01:40:51;;;;;;;0.10;0.10;;;;;;;-0.28;100.00;100399.03;4784526;29;20035;-77
2023/12/06 01:43:20;;;;;;;0.10;0.10;;;;;;;0.04;100.00;100442.50;4793972;29;20158;-78
2023/12/06 01:46:14;;;;;;;0.10;0.10;;;;;;;-0.10;100.00;100419.22;4801472;29;20058;-78
2023/12/06 01:48:43;;;;;;;0.10;0.10;;;;;;;-0.09;100.00;100426.28;4807041;29;20034;-78
2023/12/06 01:51:12;;;;;;;0.00;0.00;;;;;;;-0.10;100.00;100435.34;4815812;29;20394;-79
2023/12/06 01:53:41;;;;;;;0.10;0.10;;;;;;;-0.23;100.00;100431.56;4798999;29;20099;-80
2023/12/06 01:56:19;;;;;;;0.10;0.10;;;;;;;-0.04;100.00;100467.69;4819865;29;20038;-78
2023/12/06 01:58:46;;;;;;;0.10;0.10;;;;;;;-0.28;100.00;100428.59;4785205;29;20134;-78
2023/12/06 02:01:11;;;;;;;0.10;0.10;;;;;;;-0.14;100.00;100466.38;4794049;29;20050;-79
2023/12/06 02:03:37;;;;;;;0.10;0.10;;;;;;;-0.18;100.00;100463.22;4805760;29;20031;-77
2023/12/06 02:06:06;;;;;;;0.10;0.10;;;;;;;-0.22;100.00;100465.47;4774423;29;20039;-78
2023/12/06 02:08:37;;;;;;;0.10;0.10;;;;;;;-0.44;100.00;100437.81;4816436;29;20041;-77
2023/12/06 02:11:05;;;;;;;0.10;0.10;;;;;;;-0.39;100.00;100453.34;4811973;29;20065;-78
2023/12/06 02:13:33;;;;;;;0.10;0.10;;;;;;;-0.43;100.00;100452.06;4811314;29;20099;-82
2023/12/06 02:16:07;;;;;;;0.10;0.10;;;;;;;-0.73;100.00;100398.47;4805958;29;20046;-83
2023/12/06 02:18:42;;;;;;;0.10;0.10;;;;;;;-0.36;100.00;100458.31;4811909;29;20031;-83
2023/12/06 02:21:11;;;;;;;0.10;0.10;;;;;;;-0.71;100.00;100404.47;4789796;29;20066;-82
2023/12/06 02:23:59;;;;;;;0.10;0.10;;;;;;;-0.70;100.00;100406.16;4806511;29;20075;-79
2023/12/06 02:30:31;;;;;;;0.10;0.10;;;;;;;-0.98;100.00;100406.91;4793611;29;20130;-79
2023/12/06 02:33:02;;;;;;;0.10;0.10;;;;;;;-0.70;100.00;100454.50;4794881;29;20497;-79
2023/12/06 02:35:59;;;;;;;0.10;0.10;;;;;;;-1.01;100.00;100412.63;4803031;29;20030;-78
2023/12/06 02:38:25;;;;;;;0.10;0.10;;;;;;;-0.75;100.00;100470.34;4801828;29;20059;-78
2023/12/06 02:41:03;;;;;;;;;;;;;;;;;;;;;
2023/12/06 02:43:29;;;;;;;0.10;0.10;;;;;;;-1.35;100.00;100387.28;4809547;29;20057;-79
2023/12/06 02:45:57;;;;;;;0.10;0.10;;;;;;;-1.22;100.00;100397.34;4797504;29;20090;-78
2023/12/06 02:48:22;;;;;;;0.10;0.10;;;;;;;-1.01;100.00;100425.25;4804981;29;20046;-79
2023/12/06 02:50:50;;;;;;;0.10;0.10;;;;;;;-0.95;100.00;100433.38;4799256;29;20027;-80
2023/12/06 02:53:15;;;;;;;0.10;0.10;;;;;;;-1.14;100.00;100409.81;4822128;29;20096;-79
2023/12/06 02:55:44;;;;;;;0.10;0.10;;;;;;;-1.02;100.00;100437.00;4799016;29;20039;-79
2023/12/06 02:58:09;;;;;;;0.10;0.10;;;;;;;-1.04;100.00;100421.06;4813107;29;20557;-80
2023/12/06 03:00:35;;;;;;;0.10;0.10;;;;;;;-1.15;100.00;100400.13;4799904;29;20063;-80
2023/12/06 03:03:12;;;;;;;0.10;0.10;;;;;;;-0.82;100.00;100443.41;4806490;29;20382;-80
2023/12/06 03:05:39;;;;;;;0.10;0.10;;;;;;;-1.00;100.00;100427.72;4780591;29;20039;-80
2023/12/06 03:08:05;;;;;;;0.10;0.10;;;;;;;-0.99;100.00;100434.78;4798998;29;20095;-79
2023/12/06 03:10:34;;;;;;;0.10;0.10;;;;;;;-0.89;100.00;100464.81;4822892;29;20091;-79
2023/12/06 03:12:59;;;;;;;0.00;0.00;;;;;;;-0.92;100.00;100461.69;4801264;29;20034;-79
2023/12/06 03:15:25;;;;;;;0.10;0.10;;;;;;;-0.99;100.00;100453.56;4806270;29;20043;-80
2023/12/06 03:17:55;;;;;;;0.10;0.10;;;;;;;-1.13;100.00;100430.28;4813760;29;20039;-79
2023/12/06 03:20:21;;;;;;;0.10;0.10;;;;;;;-1.15;100.00;100432.31;4822629;29;20129;-79
2023/12/06 03:22:47;;;;;;;0.10;0.10;;;;;;;-1.04;100.00;100449.78;4820082;29;20770;-78
2023/12/06 03:25:14;;;;;;;0.10;0.10;;;;;;;-1.14;100.00;100450.06;4796361;29;20043;-78
2023/12/06 03:27:42;;;;;;;0.10;0.10;;;;;;;-1.32;100.00;100424.47;4813358;29;20027;-78
2023/12/06 03:30:11;;;;;;;0.10;0.10;;;;;;;-1.44;100.00;100423.31;4809724;29;20046;-79
2023/12/06 03:32:44;;;;;;;0.10;0.10;;;;;;;-1.60;100.00;100414.44;4803750;29;20039;-79
2023/12/06 03:35:11;;;;;;;0.10;0.10;;;;;;;-1.42;100.00;100431.97;4804122;29;20043;-78
2023/12/06 03:37:44;;;;;;;0.10;0.10;;;;;;;-1.36;100.00;100425.88;4804158;29;20070;-78
2023/12/06 03:40:10;;;;;;;0.10;0.10;;;;;;;-1.16;100.00;100441.38;4814045;29;20105;-78
2023/12/06 03:42:35;;;;;;;0.10;0.10;;;;;;;-1.12;100.00;100443.50;4802925;29;20143;-78
2023/12/06 03:45:04;;;;;;;0.10;0.10;;;;;;;-1.01;100.00;100460.13;4804438;29;20042;-77
2023/12/06 03:47:32;;;;;;;0.10;0.10;;;;;;;-1.30;100.00;100408.19;4804322;29;20475;-77
2023/12/06 03:50:00;;;;;;;0.10;0.10;;;;;;;-1.19;100.00;100431.03;4799252;29;20113;-78
2023/12/06 03:52:33;;;;;;;0.10;0.10;;;;;;;-1.20;100.00;100426.69;4804904;29;20058;-78
2023/12/06 03:55:01;;;;;;;0.10;0.10;;;;;;;-1.24;100.00;100428.91;4800869;29;20112;-79
2023/12/06 03:57:42;;;;;;;0.10;0.10;;;;;;;-1.33;100.00;100412.09;4804665;29;20039;-81
2023/12/06 04:00:11;;;;;;;0.00;0.00;;;;;;;-1.01;100.00;100469.00;4817590;29;20121;-79
2023/12/06 04:02:36;;;;;;;0.10;0.10;;;;;;;-1.01;100.00;100455.59;4806355;29;20039;-78
2023/12/06 04:05:05;;;;;;;0.00;0.00;;;;;;;-1.27;100.00;100408.66;4834116;29;20397;-77
2023/12/06 04:07:30;;;;;;;0.10;0.10;;;;;;;-0.88;100.00;100477.25;4826236;29;20023;-78
2023/12/06 04:09:58;;;;;;;0.10;0.10;;;;;;;-0.85;100.00;100464.44;4801348;29;20389;-78
2023/12/06 04:12:42;;;;;;;;;;;;;;;;;;;;;
2023/12/06 04:15:10;;;;;;;0.00;0.00;;;;;;;-0.78;100.00;100419.69;4817165;29;20099;-81
2023/12/06 04:17:36;;;;;;;0.10;0.10;;;;;;;-0.31;100.00;100472.00;4800865;29;20027;-80
2023/12/06 04:20:29;;;;;;;;;;;;;;;;;;;;;
2023/12/06 04:22:55;;;;;;;0.00;0.00;;;;;;;-0.65;100.00;100406.38;4804896;29;21047;-79
2023/12/06 04:25:28;;;;;;;0.10;0.10;;;;;;;-0.26;100.00;100469.56;4796192;29;20118;-80
2023/12/06 04:28:23;;;;;;;0.10;0.10;;;;;;;-0.37;100.00;100445.91;4818333;29;20026;-80
2023/12/06 04:30:57;;;;;;;0.10;0.10;;;;;;;-0.43;100.00;100419.81;4806422;29;20111;-80
2023/12/06 04:33:33;;;;;;;0.10;0.10;;;;;;;-0.30;100.00;100425.28;4801913;29;20110;-79
2023/12/06 04:39:22;;;;;;;0.10;0.10;;;;;;;0.14;100.00;100467.19;4826478;29;20062;-80
2023/12/06 04:41:50;;;;;;;0.10;0.10;;;;;;;0.06;100.00;100445.84;4821603;29;20088;-77
2023/12/06 04:45:32;;;;;;;;;;;;;;;;;;;;;
2023/12/06 04:48:31;;;;;;;;;;;;;;;;;;;;;
2023/12/06 04:51:10;;;;;;;;;;;;;;;;;;;;;
2023/12/06 04:53:36;;;;;;;0.00;0.00;;;;;;;-0.07;100.00;100451.13;4779031;29;20035;-80
2023/12/06 04:56:02;;;;;;;0.00;0.00;;;;;;;0.17;100.00;100490.16;4809054;29;20660;-82
2023/12/06 04:58:28;;;;;;;0.10;0.10;;;;;;;0.07;100.00;100479.75;4790012;29;20541;-81
2023/12/06 05:00:54;;;;;;;0.10;0.10;;;;;;;0.10;100.00;100479.38;4813465;29;20010;-81
2023/12/06 05:03:20;;;;;;;0.10;0.10;;;;;;;0.07;100.00;100476.22;4809622;29;20029;-80
2023/12/06 05:05:47;;;;;;;0.08;0.08;;;;;;;0.08;100.00;100475.22;4809468;29;20059;-83
2023/12/06 05:08:36;;;;;;;0.10;0.10;;;;;;;0.01;100.00;100468.94;4803121;29;20435;-81
2023/12/06 05:11:11;;;;;;;0.10;0.10;;;;;;;0.05;100.00;100476.44;4796613;29;20069;-82
2023/12/06 05:13:39;;;;;;;0.10;0.10;;;;;;;0.16;100.00;100494.72;4818633;29;20083;-80
2023/12/06 05:16:05;;;;;;;0.10;0.10;;;;;;;0.03;100.00;100500.00;4810856;29;20026;-80
2023/12/06 05:18:42;;;;;;;0.10;0.10;;;;;;;-0.40;100.00;100448.97;4805276;29;20038;-82
2023/12/06 05:21:10;;;;;;;0.00;0.00;;;;;;;-0.09;100.00;100506.91;4816331;29;20062;-76
2023/12/06 05:23:35;;;;;;;0.10;0.10;;;;;;;-0.10;100.00;100516.00;4803019;29;20038;-77
2023/12/06 05:26:01;;;;;;;0.10;0.10;;;;;;;-0.37;100.00;100484.34;4804261;29;20936;-79
2023/12/06 05:28:26;;;;;;;0.10;0.10;;;;;;;-0.37;100.00;100496.97;4817561;29;20490;-78
2023/12/06 05:30:52;;;;;;;0.10;0.10;;;;;;;-0.37;100.00;100511.22;4807901;29;20428;-78
2023/12/06 05:33:18;;;;;;;0.10;0.10;;;;;;;-0.33;100.00;100511.69;4815141;29;20038;-76
2023/12/06 05:35:46;;;;;;;0.10;0.10;;;;;;;-0.49;100.00;100490.44;4805119;29;20027;-77
2023/12/06 05:38:11;;;;;;;0.00;0.00;;;;;;;-0.70;100.00;100473.31;4802233;29;20097;-79
2023/12/06 05:40:46;;;;;;;0.10;0.10;;;;;;;-0.67;100.00;100505.16;4816729;29;20065;-78
2023/12/06 05:43:11;;;;;;;0.10;0.10;;;;;;;-0.87;100.00;100499.53;4824026;29;20042;-78
2023/12/06 05:46:06;;;;;;;0.10;0.10;;;;;;;-1.12;100.00;100496.34;4815618;29;20037;-76
2023/12/06 05:48:31;;;;;;;0.10;0.10;;;;;;;-1.16;100.00;100513.84;4815096;29;20041;-78
2023/12/06 05:50:57;;;;;;;0.10;0.10;;;;;;;-1.36;100.00;100494.78;4797841;29;20034;-79
2023/12/06 05:53:23;;;;;;;0.10;0.10;;;;;;;-1.48;100.00;100487.22;4801392;29;20030;-78
2023/12/06 05:55:48;;;;;;;0.10;0.10;;;;;;;-1.55;100.00;100480.09;4816062;29;20117;-79
2023/12/06 05:58:43;;;;;;;;;;;;;;;;;;;;;
2023/12/06 06:01:12;;;;;;;0.10;0.10;;;;;;;-1.94;100.00;100450.69;4817373;29;20486;-81
2023/12/06 06:03:50;;;;;;;;;;;;;;;;;;;;;
2023/12/06 06:06:35;;;;;;;0.10;0.10;;;;;;;-1.95;100.00;100454.38;4824693;29;20478;-81
2023/12/06 06:09:01;;;;;;;0.10;0.10;;;;;;;-1.96;100.00;100442.00;4815317;29;20043;-79
2023/12/06 06:11:34;;;;;;;0.10;0.10;;;;;;;-1.64;100.00;100488.22;4821566;29;20041;-80
2023/12/06 06:14:00;;;;;;;0.10;0.10;;;;;;;-1.63;100.00;100499.81;4812295;29;20365;-78
2023/12/06 06:16:26;;;;;;;0.10;0.10;;;;;;;-1.95;100.00;100438.28;4810386;29;20035;-78
2023/12/06 06:19:16;;;;;;;0.10;0.10;;;;;;;-1.75;100.00;100483.34;4805674;29;20443;-79
2023/12/06 06:21:42;;;;;;;0.03;0.03;;;;;;;-1.62;100.00;100504.97;4823250;29;20057;-77
2023/12/06 06:24:13;;;;;;;0.00;0.00;;;;;;;-1.56;100.00;100498.03;4811802;29;20030;-78
2023/12/06 06:27:07;;;;;;;0.10;0.10;;;;;;;-1.76;100.00;100462.91;4805056;29;20034;-79
2023/12/06 06:29:33;;;;;;;0.10;0.10;;;;;;;-1.79;100.00;100452.53;4796774;29;20386;-78
2023/12/06 06:31:58;;;;;;;0.10;0.10;;;;;;;-1.55;100.00;100494.31;4812056;29;20035;-77
2023/12/06 06:34:41;;;;;;;0.10;0.10;;;;;;;-1.67;100.00;100482.41;4801149;29;22093;-77
2023/12/06 06:37:08;;;;;;;0.10;0.10;;;;;;;-1.92;100.00;100447.00;4813191;29;20069;-81
2023/12/06 06:39:37;;;;;;;0.10;0.10;;;;;;;-1.77;100.00;100478.16;4817638;29;20049;-78
2023/12/06 06:42:06;;;;;;;0.10;0.10;;;;;;;-1.66;100.00;100495.63;4820725;29;20041;-79
2023/12/06 06:44:55;;;;;;;0.10;0.10;;;;;;;-1.56;100.00;100515.97;4806978;29;20049;-78
2023/12/06 06:47:20;;;;;;;0.10;0.10;;;;;;;-1.85;100.00;100450.59;4795070;29;20051;-77
2023/12/06 06:49:49;;;;;;;0.10;0.10;;;;;;;-1.42;100.00;100507.09;4804533;29;20105;-80
2023/12/06 06:52:19;;;;;;;0.10;0.10;;;;;;;-1.63;100.00;100452.34;4814561;29;20122;-79
2023/12/06 06:54:45;;;;;;;0.10;0.10;;;;;;;-1.40;100.00;100488.97;4816053;29;20806;-78
2023/12/06 06:57:13;;;;;;;0.10;0.10;;;;;;;-1.35;100.00;100491.94;4793913;29;20041;-80
2023/12/06 06:59:38;;;;;;;0.00;0.00;;;;;;;-1.32;100.00;100496.91;4819261;29;20466;-80
2023/12/06 07:02:04;;;;;;;0.10;0.10;;;;;;;-1.10;100.00;100523.84;4789874;29;20033;-78
2023/12/06 07:04:31;;;;;;;0.10;0.10;;;;;;;-1.15;100.00;100499.41;4818113;29;20136;-77
2023/12/06 07:06:57;;;;;;;0.00;0.00;;;;;;;-1.02;100.00;100512.16;4799926;29;20022;-79
2023/12/06 07:09:23;;;;;;;0.10;0.10;;;;;;;-0.92;100.00;100518.91;4795806;29;20026;-77
2023/12/06 07:11:53;;;;;;;0.10;0.10;;;;;;;-0.88;100.00;100530.94;4811806;29;20039;-77
2023/12/06 07:14:20;;;;;;;0.10;0.10;;;;;;;-1.04;100.00;100498.09;4818611;29;20037;-78
2023/12/06 07:16:45;;;;;;;0.10;0.10;;;;;;;-0.98;100.00;100502.69;4816743;29;20031;-76
2023/12/06 07:19:16;;;;;;;0.10;0.10;;;;;;;-1.06;100.00;100484.88;4814835;29;20042;-78
2023/12/06 07:22:20;;;;;;;0.10;0.10;;;;;;;-1.04;100.00;100471.25;4806541;29;20038;-78
2023/12/06 07:24:46;;;;;;;0.10;0.10;;;;;;;-0.82;100.00;100501.66;4820767;29;20030;-80
2023/12/06 07:27:14;;;;;;;0.10;0.10;;;;;;;-1.02;100.00;100464.69;4815636;29;20063;-79
2023/12/06 07:29:42;;;;;;;0.10;0.10;;;;;;;-0.57;100.00;100520.94;4814471;29;20148;-79
2023/12/06 07:32:36;;;;;;;0.00;0.00;;;;;;;-0.45;100.00;100530.16;4820739;29;20048;-82
2023/12/06 07:35:06;;;;;;;0.10;0.10;;;;;;;-0.45;100.00;100521.25;4828968;29;20077;-81
2023/12/06 07:37:41;;;;;;;0.10;0.10;;;;;;;-0.51;100.00;100508.59;4820935;29;20047;-79
2023/12/06 07:40:11;;;;;;;0.10;0.10;;;;;;;-0.43;100.00;100501.25;4800326;29;20038;-81
2023/12/06 07:42:42;;;;;;;0.10;0.10;;;;;;;-0.36;100.00;100501.31;4815411;29;20023;-79
2023/12/06 07:45:11;;;;;;;0.00;0.00;;;;;;;-0.36;100.00;100490.56;4800991;29;20486;-77
2023/12/06 07:47:39;;;;;;;0.10;0.10;;;;;;;-0.31;100.00;100496.19;4814233;29;20054;-79
2023/12/06 07:50:06;;;;;;;0.08;0.08;;;;;;;-0.27;100.00;100500.16;4803901;29;20034;-76
2023/12/06 07:52:33;;;;;;;0.10;0.10;;;;;;;-0.14;100.00;100510.19;4794788;29;20034;-80
2023/12/06 07:54:59;;;;;;;0.10;0.10;;;;;;;-0.10;100.00;100507.94;4804857;29;20068;-82
2023/12/06 07:57:29;;;;;;;0.10;0.10;;;;;;;0.21;100.00;100552.47;4816654;29;20043;-78
2023/12/06 07:59:58;;;;;;;0.10;0.10;;;;;;;0.04;100.00;100507.03;4813762;29;20042;-78
2023/12/06 08:02:27;;;;;;;0.00;0.00;;;;;;;0.41;100.00;100545.38;4792040;29;20062;-78
2023/12/06 08:04:55;;;;;;;0.08;0.08;;;;;;;0.45;100.00;100537.75;4815002;29;20053;-80
2023/12/06 08:07:22;;;;;;;0.10;0.10;;;;;;;0.39;100.00;100525.91;4798357;29;20534;-79
2023/12/06 08:09:49;;;;;;;0.10;0.10;;;;;;;0.47;100.00;100517.69;4797976;29;20034;-80
2023/12/06 08:12:20;;;;;;;0.10;0.10;;;;;;;0.39;100.00;100495.50;4812843;29;20898;-79
2023/12/06 08:14:46;;;;;;;0.10;0.10;;;;;;;0.74;100.00;100528.59;4817691;29;20092;-78
2023/12/06 08:17:14;;;;;;;0.00;0.00;;;;;;;0.87;100.00;100534.06;4812540;29;20508;-80
2023/12/06 08:19:50;;;;;;;0.10;0.10;;;;;;;0.84;100.00;100528.25;4795841;29;20442;-79
2023/12/06 08:22:16;;;;;;;0.10;0.10;;;;;;;0.94;100.00;100538.66;4815877;29;20048;-78
2023/12/06 08:24:41;;;;;;;0.00;0.00;;;;;;;0.98;100.00;100526.44;4810817;29;20038;-81
2023/12/06 08:27:10;;;;;;;0.10;0.10;;;;;;;0.97;100.00;100509.47;4797340;29;20030;-79
2023/12/06 08:29:49;;;;;;;0.00;0.00;;;;;;;1.31;100.00;100544.63;4802870;29;20030;-80
2023/12/06 08:32:24;;;;;;;;;;;;;;;;;;;;;
2023/12/06 08:34:50;;;;;;;0.00;0.00;;;;;;;1.39;100.00;100509.41;4819990;29;20034;-80
2023/12/06 08:37:20;;;;;;;0.10;0.10;;;;;;;1.79;100.00;100555.31;4803164;29;20125;-81
2023/12/06 08:39:47;;;;;;;0.00;0.00;;;;;;;1.76;100.00;100514.47;4806872;29;20030;-79
2023/12/06 08:42:16;;;;;;;0.00;0.00;;;;;;;1.87;100.00;100506.56;4803351;29;20034;-80
2023/12/06 08:44:44;;;;;;;0.10;0.10;;;;;;;1.92;100.00;100509.47;4817198;29;20083;-80
2023/12/06 08:47:12;;;;;;;0.10;0.10;;;;;;;2.29;100.00;100546.00;4798954;29;20037;-81
2023/12/06 08:49:38;;;;;;;0.10;0.10;;;;;;;2.29;100.00;100536.03;4804872;29;20027;-80
2023/12/06 08:52:08;;;;;;;0.10;0.10;;;;;;;2.40;100.00;100537.28;4813047;29;20707;-80
2023/12/06 08:54:56;;;;;;;0.10;0.10;;;;;;;2.34;100.00;100511.97;4797218;29;20446;-80
2023/12/06 08:57:29;;;;;;;0.00;0.00;;;;;;;2.03;100.00;100467.56;4819171;29;20083;-79
2023/12/06 08:59:54;;;;;;;0.00;0.00;;;;;;;2.39;100.00;100522.94;4804256;29;20031;-81
2023/12/06 09:02:46;;;;;;;0.00;0.00;;;;;;;1.96;100.00;100455.09;4803205;29;20553;-78
2023/12/06 09:05:16;;;;;;;0.10;0.10;;;;;;;2.22;100.00;100486.63;4815412;29;20043;-78
2023/12/06 09:08:11;;;;;;;0.10;0.10;;;;;;;2.53;100.00;100510.28;4822181;29;20022;-80
2023/12/06 09:10:38;;;;;;;0.10;0.10;;;;;;;2.54;100.00;100509.22;4813459;29;20085;-80
2023/12/06 09:13:06;;;;;;;0.00;0.00;;;;;;;2.74;100.00;100527.25;4807179;29;20034;-81
2023/12/06 09:15:31;;;;;;;0.10;0.10;;;;;;;2.51;100.00;100469.16;4801507;29;20026;-80
2023/12/06 09:17:57;;;;;;;0.00;0.00;;;;;;;2.87;100.00;100527.22;4792932;29;20562;-80
2023/12/06 09:20:23;;;;;;;0.00;0.00;;;;;;;2.72;100.00;100486.94;4802091;29;20035;-79
2023/12/06 09:22:52;;;;;;;0.00;0.00;;;;;;;2.63;100.00;100466.63;4818014;29;20054;-80
2023/12/06 09:25:27;;;;;;;0.10;0.10;;;;;;;2.96;100.00;100520.53;4829326;29;20402;-79
2023/12/06 09:27:55;;;;;;;0.10;0.10;;;;;;;2.90;100.00;100499.75;4819339;29;20061;-80
2023/12/06 09:30:20;;;;;;;0.10;0.10;;;;;;;2.94;100.00;100506.41;4809542;29;20060;-81
2023/12/06 09:32:48;;;;;;;0.00;0.00;;;;;;;3.16;100.00;100535.84;4804740;29;20113;-80
2023/12/06 09:35:16;;;;;;;0.00;0.00;;;;;;;3.16;100.00;100527.72;4792189;29;20510;-79
2023/12/06 09:37:44;;;;;;;0.00;0.00;;;;;;;3.04;100.00;100491.59;4808327;29;20079;-80
2023/12/06 09:40:15;;;;;;;0.00;0.00;;;;;;;3.19;100.00;100500.28;4771822;29;20043;-80
2023/12/06 09:42:58;;;;;;;0.00;0.00;;;;;;;3.37;100.00;100504.94;4797012;29;20083;-80
2023/12/06 09:45:27;;;;;;;0.10;0.10;;;;;;;3.55;100.00;100517.75;4804625;29;20034;-80
2023/12/06 09:47:54;;;;;;;0.00;0.00;;;;;;;3.64;100.00;100527.28;4780709;29;20066;-81
2023/12/06 09:50:24;;;;;;;0.00;0.00;;;;;;;3.60;100.00;100512.53;4805507;29;20030;-81
2023/12/06 09:52:56;;;;;;;0.00;0.00;;;;;;;3.68;100.00;100511.44;4810948;29;20459;-79
2023/12/06 09:55:28;;;;;;;0.10;0.10;;;;;;;3.62;100.00;100502.34;4809343;29;20033;-82
2023/12/06 09:57:54;;;;;;;0.00;0.00;;;;;;;3.98;100.00;100544.09;4799989;29;20183;-80
2023/12/06 10:00:21;;;;;;;0.10;0.10;;;;;;;3.79;100.00;100512.63;4814169;29;20120;-80
2023/12/06 10:02:51;;;;;;;0.10;0.10;;;;;;;3.80;100.00;100503.47;4806068;29;20034;-81
2023/12/06 10:05:19;;;;;;;0.00;0.00;;;;;;;3.96;100.00;100518.34;4804178;29;20125;-79
2023/12/06 10:07:46;;;;;;;0.10;0.10;;;;;;;4.06;100.00;100542.16;4798134;29;20031;-80
2023/12/06 10:10:19;;;;;;;0.00;0.00;;;;;;;3.63;100.00;100524.78;4812085;29;20126;-82
2023/12/06 10:12:57;;;;;;;0.10;0.10;;;;;;;3.60;100.00;100536.84;4804880;29;20034;-80
2023/12/06 10:15:23;;;;;;;0.00;0.00;;;;;;;3.52;100.00;100525.47;4813844;29;20121;-79
2023/12/06 10:17:57;;;;;;;0.10;0.10;;;;;;;3.59;100.00;100537.06;4807654;29;20118;-80
2023/12/06 10:20:43;;;;;;;0.00;0.00;;;;;;;3.80;100.00;100576.50;4809548;29;20080;-81
2023/12/06 10:23:13;;;;;;;0.00;0.00;;;;;;;3.56;100.00;100545.63;4809887;29;20034;-80
2023/12/06 10:25:47;;;;;;;0.00;0.00;;;;;;;3.53;100.00;100549.59;4797814;29;20069;-80
2023/12/06 10:28:20;;;;;;;0.00;0.00;;;;;;;3.41;100.00;100518.88;4809424;29;20087;-80
2023/12/06 10:31:04;;;;;;;0.00;0.00;;;;;;;3.55;100.00;100543.97;4808357;29;21158;-79
2023/12/06 10:34:09;;;;;;;;;;;;;;;;;;;;;
2023/12/06 10:36:40;;;;;;;;;;;;;;;3.88;100.00;100570.81;4800804;29;20470;-79
2023/12/06 10:39:16;;;;;;;0.10;0.10;;;;;;;3.67;100.00;100537.66;4799086;29;19948;-79
2023/12/06 10:41:49;;;;;;;0.00;0.00;;;;;;;3.44;100.00;100499.53;4807638;29;20027;-80
2023/12/06 10:44:22;;;;;;;0.00;0.00;;;;;;;3.51;100.00;100523.84;4780951;29;20839;-79
2023/12/06 10:46:48;;;;;;;0.00;0.00;;;;;;;3.49;100.00;100526.75;4811024;29;20049;-79
2023/12/06 10:49:15;;;;;;;0.10;0.10;;;;;;;3.70;100.00;100547.22;4812897;29;20035;-78
2023/12/06 10:51:42;;;;;;;0.00;0.00;;;;;;;3.75;100.00;100549.25;4793171;29;20543;-79
2023/12/06 10:54:09;;;;;;;0.00;0.00;;;;;;;3.49;100.00;100503.25;4794449;29;20031;-79
2023/12/06 10:56:46;;;;;;;0.00;0.00;;;;;;;3.41;100.00;100497.25;4793963;29;20483;-77
2023/12/06 10:59:20;;;;;;;0.00;0.00;;;;;;;3.37;100.00;100477.09;4814339;29;20107;-78
2023/12/06 11:01:49;;;;;;;0.10;0.10;;;;;;;3.46;100.00;100464.97;4800818;29;21009;-77
2023/12/06 11:04:15;;;;;;;0.10;0.10;;;;;;;3.79;100.00;100490.97;4813845;29;20035;-78
2023/12/06 11:07:04;;;;;;;0.00;0.00;;;;;;;4.07;100.00;100522.19;4796037;29;20118;-77
2023/12/06 11:10:03;;;;;;;0.10;0.10;;;;;;;4.06;100.00;100512.41;4797587;29;20089;-77
2023/12/06 11:12:50;;;;;;;0.10;0.10;;;;;;;3.97;100.00;100482.94;4797416;29;20050;-78
2023/12/06 11:15:36;;;;;;;0.10;0.10;;;;;;;4.32;100.00;100512.19;4814004;29;20035;-78
2023/12/06 11:18:18;;;;;;;0.00;0.00;;;;;;;4.33;100.00;100492.16;4803895;29;20030;-77
2023/12/06 11:20:50;;;;;;;0.00;0.00;;;;;;;4.41;100.00;100498.34;4811206;29;20144;-79
2023/12/06 11:23:17;;;;;;;0.00;0.00;;;;;;;4.32;100.00;100473.44;4792097;29;20036;-78
2023/12/06 11:25:44;;;;;;;0.00;0.00;;;;;;;4.39;100.00;100470.69;4796325;29;20031;-80
2023/12/06 11:28:28;;;;;;;0.03;0.03;;;;;;;4.23;100.00;100443.13;4798353;29;20487;-78
2023/12/06 11:31:20;;;;;;;0.10;0.10;;;;;;;4.14;100.00;100449.88;4791569;29;20070;-80
2023/12/06 11:34:03;;;;;;;0.10;0.10;;;;;;;4.28;100.00;100489.31;4793467;29;20034;-78
2023/12/06 11:36:29;;;;;;;0.10;0.10;;;;;;;4.44;100.00;100524.97;4795678;29;20050;-78
2023/12/06 11:38:55;;;;;;;0.10;0.10;;;;;;;4.34;100.00;100511.97;4774271;29;20499;-78
2023/12/06 11:41:27;;;;;;;0.00;0.00;;;;;;;4.31;100.00;100496.19;4782644;29;20499;-80
2023/12/06 11:43:54;;;;;;;0.00;0.00;;;;;;;4.36;100.00;100491.72;4812155;29;20030;-79
2023/12/06 11:46:33;;;;;;;0.10;0.10;;;;;;;4.64;100.00;100513.94;4799350;29;20030;-78
2023/12/06 11:48:59;;;;;;;0.10;0.10;;;;;;;4.49;100.00;100489.94;4800822;29;20406;-78
2023/12/06 11:51:25;;;;;;;0.00;0.00;;;;;;;4.50;100.00;100491.63;4810894;29;20043;-78
2023/12/06 11:53:52;;;;;;;0.00;0.00;;;;;;;4.69;100.00;100501.41;4800149;29;20466;-79
2023/12/06 11:56:35;;;;;;;0.00;0.00;;;;;;;4.66;100.00;100485.59;4807546;29;20035;-79
2023/12/06 11:59:08;;;;;;;0.00;0.00;;;;;;;4.80;100.00;100493.56;4814748;29;20060;-79
2023/12/06 12:01:36;;;;;;;0.10;0.10;;;;;;;4.76;100.00;100489.66;4803614;29;20497;-79
2023/12/06 12:04:08;;;;;;;0.10;0.10;;;;;;;4.77;100.00;100480.47;4818195;29;20035;-78
2023/12/06 12:06:36;;;;;;;0.00;0.00;;;;;;;4.71;100.00;100450.50;4819569;29;20023;-78
2023/12/06 12:09:05;;;;;;;0.00;0.00;;;;;;;4.86;99.95;100457.44;4811216;29;20031;-79
2023/12/06 12:11:33;;;;;;;0.00;0.00;;;;;;;5.02;99.46;100473.09;4819055;29;20058;-78
2023/12/06 12:14:52;;;;;;;0.00;0.00;;;;;;;4.74;99.21;100418.63;4822050;29;20076;-78
2023/12/06 12:17:23;;;;;;;0.00;0.00;;;;;;;5.01;98.92;100455.16;4790471;29;20065;-80
2023/12/06 12:19:52;;;;;;;0.00;0.00;;;;;;;5.14;98.34;100466.88;4814839;29;20034;-78
2023/12/06 12:22:20;;;;;;;0.00;0.00;;;;;;;5.01;98.26;100443.50;4813422;29;20036;-78
2023/12/06 12:24:48;;;;;;;0.00;0.00;;;;;;;5.07;98.54;100456.94;4833532;29;20049;-78
2023/12/06 12:27:37;;;;;;;0.10;0.10;;;;;;;5.28;97.66;100427.69;4794994;29;20149;-79